sensor_id;sensor_type;location;lat;lon;timestamp;pressure;altitude;pressure_sealevel;temperature;humidity
64340;BME280;63709;53.258;-8.814;2023-03-01T00:01:21;104041.13;;;9.42;100.00
64340;BME280;63709;53.258;-8.814;2023-03-01T00:03:47;104040.34;;;9.36;100.00
64340;BME280;63709;53.258;-8.814;2023-03-01T00:06:13;104041.91;;;8.96;100.00
64340;BME280;63709;53.258;-8.814;2023-03-01T00:08:38;104038.25;;;9.04;100.00
64340;BME280;63709;53.258;-8.814;2023-03-01T00:11:15;104030.41;;;8.94;100.00
64340;BME280;63709;53.258;-8.814;2023-03-01T00:13:42;104032.50;;;9.27;100.00
64340;BME280;63709;53.258;-8.814;2023-03-01T00:16:10;104023.50;;;8.83;100.00
64340;BME280;63709;53.258;-8.814;2023-03-01T00:18:35;104032.13;;;8.99;100.00
64340;BME280;63709;53.258;-8.814;2023-03-01T00:21:01;104027.50;;;9.08;100.00
64340;BME280;63709;53.258;-8.814;2023-03-01T00:23:26;104027.50;;;9.08;100.00
64340;BME280;63709;53.258;-8.814;2023-03-01T00:25:52;104025.66;;;9.13;100.00
64340;BME280;63709;53.258;-8.814;2023-03-01T00:28:17;104014.84;;;9.21;100.00
64340;BME280;63709;53.258;-8.814;2023-03-01T00:30:43;104026.47;;;9.17;100.00
64340;BME280;63709;53.258;-8.814;2023-03-01T00:33:08;104007.69;;;9.23;100.00
64340;BME280;63709;53.258;-8.814;2023-03-01T00:35:34;104009.75;;;9.09;100.00
64340;BME280;63709;53.258;-8.814;2023-03-01T00:37:59;104006.00;;;9.19;100.00
64340;BME280;63709;53.258;-8.814;2023-03-01T00:40:25;104005.03;;;9.25;100.00
64340;BME280;63709;53.258;-8.814;2023-03-01T00:42:51;104003.28;;;9.24;100.00
64340;BME280;63709;53.258;-8.814;2023-03-01T00:45:16;103992.84;;;9.10;100.00
64340;BME280;63709;53.258;-8.814;2023-03-01T00:47:42;103993.47;;;9.24;100.00
64340;BME280;63709;53.258;-8.814;2023-03-01T00:50:07;104000.75;;;9.14;100.00
64340;BME280;63709;53.258;-8.814;2023-03-01T00:52:33;103999.69;;;9.25;100.00
64340;BME280;63709;53.258;-8.814;2023-03-01T00:54:58;103990.97;;;9.15;100.00
64340;BME280;63709;53.258;-8.814;2023-03-01T00:57:23;103992.63;;;9.22;100.00
64340;BME280;63709;53.258;-8.814;2023-03-01T00:59:49;103992.47;;;9.30;100.00
64340;BME280;63709;53.258;-8.814;2023-03-01T01:02:14;103988.00;;;9.32;100.00
64340;BME280;63709;53.258;-8.814;2023-03-01T01:04:39;103991.94;;;9.11;100.00
64340;BME280;63709;53.258;-8.814;2023-03-01T01:07:04;103993.50;;;9.23;100.00
64340;BME280;63709;53.258;-8.814;2023-03-01T01:09:30;103986.34;;;9.25;100.00
64340;BME280;63709;53.258;-8.814;2023-03-01T01:11:56;103988.22;;;9.19;100.00
64340;BME280;63709;53.258;-8.814;2023-03-01T01:14:23;103981.31;;;9.08;100.00
64340;BME280;63709;53.258;-8.814;2023-03-01T01:16:48;103975.69;;;9.25;100.00
64340;BME280;63709;53.258;-8.814;2023-03-01T01:19:14;103973.75;;;9.33;100.00
64340;BME280;63709;53.258;-8.814;2023-03-01T01:21:40;103969.28;;;9.35;100.00
64340;BME280;63709;53.258;-8.814;2023-03-01T01:24:08;103967.31;;;9.44;100.00
64340;BME280;63709;53.258;-8.814;2023-03-01T01:26:33;103965.03;;;9.25;100.00
64340;BME280;63709;53.258;-8.814;2023-03-01T01:28:59;103953.59;;;9.18;100.00
64340;BME280;63709;53.258;-8.814;2023-03-01T01:31:25;103957.75;;;9.33;100.00
64340;BME280;63709;53.258;-8.814;2023-03-01T01:33:52;103953.16;;;9.41;100.00
64340;BME280;63709;53.258;-8.814;2023-03-01T01:36:17;103944.31;;;9.39;100.00
64340;BME280;63709;53.258;-8.814;2023-03-01T01:38:43;103946.91;;;9.43;100.00
64340;BME280;63709;53.258;-8.814;2023-03-01T01:41:08;103949.66;;;9.37;100.00
64340;BME280;63709;53.258;-8.814;2023-03-01T01:43:37;103947.81;;;9.41;100.00
64340;BME280;63709;53.258;-8.814;2023-03-01T01:46:04;103946.94;;;9.40;100.00
64340;BME280;63709;53.258;-8.814;2023-03-01T01:48:41;103943.56;;;9.32;100.00
64340;BME280;63709;53.258;-8.814;2023-03-01T01:51:11;103931.91;;;9.36;100.00
64340;BME280;63709;53.258;-8.814;2023-03-01T01:53:38;103920.38;;;9.36;100.00
64340;BME280;63709;53.258;-8.814;2023-03-01T01:56:05;103921.09;;;9.44;100.00
64340;BME280;63709;53.258;-8.814;2023-03-01T01:58:32;103920.13;;;9.50;100.00
64340;BME280;63709;53.258;-8.814;2023-03-01T02:00:58;103917.34;;;9.54;100.00
64340;BME280;63709;53.258;-8.814;2023-03-01T02:03:26;103903.13;;;9.54;100.00
64340;BME280;63709;53.258;-8.814;2023-03-01T02:05:59;103910.50;;;9.41;100.00
64340;BME280;63709;53.258;-8.814;2023-03-01T02:08:27;103909.56;;;9.43;100.00
64340;BME280;63709;53.258;-8.814;2023-03-01T02:10:55;103905.97;;;9.44;100.00
64340;BME280;63709;53.258;-8.814;2023-03-01T02:13:21;103896.13;;;9.50;100.00
64340;BME280;63709;53.258;-8.814;2023-03-01T02:15:46;103881.09;;;9.45;100.00
64340;BME280;63709;53.258;-8.814;2023-03-01T02:18:14;103881.09;;;9.45;100.00
64340;BME280;63709;53.258;-8.814;2023-03-01T02:20:50;103878.72;;;9.32;100.00
64340;BME280;63709;53.258;-8.814;2023-03-01T02:23:19;103869.84;;;9.31;100.00
64340;BME280;63709;53.258;-8.814;2023-03-01T02:28:30;103868.88;;;9.34;100.00
64340;BME280;63709;53.258;-8.814;2023-03-01T02:30:56;103867.91;;;9.38;100.00
64340;BME280;63709;53.258;-8.814;2023-03-01T02:33:40;103866.19;;;9.35;100.00
64340;BME280;63709;53.258;-8.814;2023-03-01T02:36:11;103850.34;;;9.28;100.00
64340;BME280;63709;53.258;-8.814;2023-03-01T02:38:38;103856.69;;;9.22;100.00
64340;BME280;63709;53.258;-8.814;2023-03-01T02:41:04;103845.91;;;9.28;100.00
64340;BME280;63709;53.258;-8.814;2023-03-01T02:43:31;103844.91;;;9.32;100.00
64340;BME280;63709;53.258;-8.814;2023-03-01T02:45:59;103852.97;;;9.29;100.00
64340;BME280;63709;53.258;-8.814;2023-03-01T02:48:24;103849.41;;;9.30;100.00
64340;BME280;63709;53.258;-8.814;2023-03-01T02:51:09;103841.66;;;9.18;100.00
64340;BME280;63709;53.258;-8.814;2023-03-01T02:56:04;103833.56;;;9.24;100.00
64340;BME280;63709;53.258;-8.814;2023-03-01T02:58:31;103834.38;;;9.28;100.00
64340;BME280;63709;53.258;-8.814;2023-03-01T03:00:56;103836.22;;;9.23;100.00
64340;BME280;63709;53.258;-8.814;2023-03-01T03:03:21;103828.16;;;9.26;100.00
64340;BME280;63709;53.258;-8.814;2023-03-01T03:05:47;103832.63;;;9.25;100.00
64340;BME280;63709;53.258;-8.814;2023-03-01T03:08:13;103819.31;;;9.25;100.00
64340;BME280;63709;53.258;-8.814;2023-03-01T03:10:41;103819.25;;;9.28;100.00
64340;BME280;63709;53.258;-8.814;2023-03-01T03:13:09;103817.56;;;9.24;100.00
64340;BME280;63709;53.258;-8.814;2023-03-01T03:15:34;103817.78;;;9.12;100.00
64340;BME280;63709;53.258;-8.814;2023-03-01T03:18:05;103817.88;;;9.09;100.00
64340;BME280;63709;53.258;-8.814;2023-03-01T03:20:30;103806.84;;;9.27;100.00
64340;BME280;63709;53.258;-8.814;2023-03-01T03:22:57;103806.69;;;9.33;100.00
64340;BME280;63709;53.258;-8.814;2023-03-01T03:25:24;103798.66;;;9.35;100.00
64340;BME280;63709;53.258;-8.814;2023-03-01T03:27:50;103799.78;;;9.23;100.00
64340;BME280;63709;53.258;-8.814;2023-03-01T03:30:21;103800.53;;;9.31;100.00
64340;BME280;63709;53.258;-8.814;2023-03-01T03:32:47;103791.47;;;9.38;100.00
64340;BME280;63709;53.258;-8.814;2023-03-01T03:35:18;103785.34;;;9.35;100.00
64340;BME280;63709;53.258;-8.814;2023-03-01T03:37:43;103785.63;;;9.21;100.00
64340;BME280;63709;53.258;-8.814;2023-03-01T03:40:28;103789.97;;;9.25;100.00
64340;BME280;63709;53.258;-8.814;2023-03-01T03:42:53;103797.22;;;9.18;100.00
64340;BME280;63709;53.258;-8.814;2023-03-01T03:45:19;103799.50;;;9.37;100.00
64340;BME280;63709;53.258;-8.814;2023-03-01T03:47:44;103787.31;;;9.25;100.00
64340;BME280;63709;53.258;-8.814;2023-03-01T03:50:10;103784.72;;;9.22;100.00
64340;BME280;63709;53.258;-8.814;2023-03-01T03:52:36;103787.66;;;9.10;100.00
64340;BME280;63709;53.258;-8.814;2023-03-01T03:55:01;103796.13;;;9.29;100.00
64340;BME280;63709;53.258;-8.814;2023-03-01T03:57:26;103790.84;;;9.26;100.00
64340;BME280;63709;53.258;-8.814;2023-03-01T03:59:52;103791.78;;;9.25;100.00
64340;BME280;63709;53.258;-8.814;2023-03-01T04:02:17;103792.75;;;9.19;100.00
64340;BME280;63709;53.258;-8.814;2023-03-01T04:04:48;103792.81;;;9.17;100.00
64340;BME280;63709;53.258;-8.814;2023-03-01T04:07:16;103793.75;;;9.15;100.00
64340;BME280;63709;53.258;-8.814;2023-03-01T04:09:42;103788.19;;;9.26;100.00
64340;BME280;63709;53.258;-8.814;2023-03-01T04:12:07;103783.88;;;9.20;100.00
64340;BME280;63709;53.258;-8.814;2023-03-01T04:14:33;103780.63;;;9.06;100.00
64340;BME280;63709;53.258;-8.814;2023-03-01T04:16:58;103780.38;;;9.18;100.00
64340;BME280;63709;53.258;-8.814;2023-03-01T04:19:23;103776.06;;;9.11;100.00
64340;BME280;63709;53.258;-8.814;2023-03-01T04:21:49;103774.03;;;9.24;100.00
64340;BME280;63709;53.258;-8.814;2023-03-01T04:24:14;103774.00;;;9.25;100.00
64340;BME280;63709;53.258;-8.814;2023-03-01T04:26:39;103779.81;;;9.02;100.00
64340;BME280;63709;53.258;-8.814;2023-03-01T04:29:04;103776.06;;;9.12;100.00
64340;BME280;63709;53.258;-8.814;2023-03-01T04:31:30;103775.13;;;9.13;100.00
64340;BME280;63709;53.258;-8.814;2023-03-01T04:33:55;103771.66;;;9.08;100.00
64340;BME280;63709;53.258;-8.814;2023-03-01T04:36:22;103764.38;;;8.75;100.00
64340;BME280;63709;53.258;-8.814;2023-03-01T04:38:48;103762.69;;;9.14;100.00
64340;BME280;63709;53.258;-8.814;2023-03-01T04:41:14;103766.28;;;9.13;100.00
64340;BME280;63709;53.258;-8.814;2023-03-01T04:43:39;103762.63;;;9.17;100.00
64340;BME280;63709;53.258;-8.814;2023-03-01T04:46:08;103758.84;;;9.27;100.00
64340;BME280;63709;53.258;-8.814;2023-03-01T04:48:36;103765.88;;;9.30;100.00
64340;BME280;63709;53.258;-8.814;2023-03-01T04:51:02;103771.16;;;9.33;100.00
64340;BME280;63709;53.258;-8.814;2023-03-01T04:53:27;103763.28;;;9.27;100.00
64340;BME280;63709;53.258;-8.814;2023-03-01T04:55:56;103760.06;;;9.12;100.00
64340;BME280;63709;53.258;-8.814;2023-03-01T04:58:25;103752.78;;;9.19;100.00
64340;BME280;63709;53.258;-8.814;2023-03-01T05:00:51;103756.59;;;9.07;100.00
64340;BME280;63709;53.258;-8.814;2023-03-01T05:03:16;103757.06;;;9.26;100.00
64340;BME280;63709;53.258;-8.814;2023-03-01T05:05:43;103761.31;;;9.36;100.00
64340;BME280;63709;53.258;-8.814;2023-03-01T05:08:09;103757.53;;;9.45;100.00
64340;BME280;63709;53.258;-8.814;2023-03-01T05:10:43;103760.25;;;9.43;100.00
64340;BME280;63709;53.258;-8.814;2023-03-01T05:13:08;103756.81;;;9.38;100.00
64340;BME280;63709;53.258;-8.814;2023-03-01T05:15:34;103760.38;;;9.37;100.00
64340;BME280;63709;53.258;-8.814;2023-03-01T05:18:01;103755.91;;;9.39;100.00
64340;BME280;63709;53.258;-8.814;2023-03-01T05:20:27;103761.13;;;9.44;100.00
64340;BME280;63709;53.258;-8.814;2023-03-01T05:22:55;103762.28;;;9.32;100.00
64340;BME280;63709;53.258;-8.814;2023-03-01T05:25:21;103761.53;;;9.26;100.00
64340;BME280;63709;53.258;-8.814;2023-03-01T05:27:46;103769.41;;;9.30;100.00
64340;BME280;63709;53.258;-8.814;2023-03-01T05:30:12;103774.69;;;9.35;100.00
64340;BME280;63709;53.258;-8.814;2023-03-01T05:32:44;103775.06;;;9.16;100.00
64340;BME280;63709;53.258;-8.814;2023-03-01T05:35:13;103770.41;;;9.26;100.00
64340;BME280;63709;53.258;-8.814;2023-03-01T05:37:43;103774.03;;;9.24;100.00
64340;BME280;63709;53.258;-8.814;2023-03-01T05:40:09;103767.25;;;9.07;100.00
64340;BME280;63709;53.258;-8.814;2023-03-01T05:42:41;103768.59;;;9.27;100.00
64340;BME280;63709;53.258;-8.814;2023-03-01T05:45:06;103777.47;;;9.29;100.00
64340;BME280;63709;53.258;-8.814;2023-03-01T05:47:34;103779.16;;;9.33;100.00
64340;BME280;63709;53.258;-8.814;2023-03-01T05:50:00;103779.97;;;9.36;100.00
64340;BME280;63709;53.258;-8.814;2023-03-01T05:52:25;103780.31;;;9.21;100.00
64340;BME280;63709;53.258;-8.814;2023-03-01T05:54:51;103773.81;;;9.33;100.00
64340;BME280;63709;53.258;-8.814;2023-03-01T05:57:16;103780.84;;;9.37;100.00
64340;BME280;63709;53.258;-8.814;2023-03-01T05:59:41;103785.06;;;9.47;100.00
64340;BME280;63709;53.258;-8.814;2023-03-01T06:02:06;103781.69;;;9.39;100.00
64340;BME280;63709;53.258;-8.814;2023-03-01T06:04:32;103782.44;;;9.44;100.00
64340;BME280;63709;53.258;-8.814;2023-03-01T06:06:57;103783.50;;;9.37;100.00
64340;BME280;63709;53.258;-8.814;2023-03-01T06:09:22;103785.34;;;9.35;100.00
64340;BME280;63709;53.258;-8.814;2023-03-01T06:11:47;103787.66;;;9.50;100.00
64340;BME280;63709;53.258;-8.814;2023-03-01T06:14:13;103782.69;;;9.33;100.00
64340;BME280;63709;53.258;-8.814;2023-03-01T06:16:39;103782.34;;;9.49;100.00
64340;BME280;63709;53.258;-8.814;2023-03-01T06:19:05;103775.44;;;9.40;100.00
64340;BME280;63709;53.258;-8.814;2023-03-01T06:21:30;103779.78;;;9.45;100.00
64340;BME280;63709;53.258;-8.814;2023-03-01T06:23:55;103776.19;;;9.47;100.00
64340;BME280;63709;53.258;-8.814;2023-03-01T06:26:20;103771.19;;;9.31;100.00
64340;BME280;63709;53.258;-8.814;2023-03-01T06:28:46;103765.69;;;9.39;100.00
64340;BME280;63709;53.258;-8.814;2023-03-01T06:31:11;103763.47;;;9.58;100.00
64340;BME280;63709;53.258;-8.814;2023-03-01T06:33:36;103768.25;;;9.43;100.00
64340;BME280;63709;53.258;-8.814;2023-03-01T06:36:02;103763.59;;;9.53;100.00
64340;BME280;63709;53.258;-8.814;2023-03-01T06:38:27;103767.81;;;9.62;100.00
64340;BME280;63709;53.258;-8.814;2023-03-01T06:40:53;103765.91;;;9.68;100.00
64340;BME280;63709;53.258;-8.814;2023-03-01T06:43:19;103760.56;;;9.68;100.00
64340;BME280;63709;53.258;-8.814;2023-03-01T06:45:44;103760.56;;;9.68;100.00
64340;BME280;63709;53.258;-8.814;2023-03-01T06:48:10;103765.28;;;9.57;100.00
64340;BME280;63709;53.258;-8.814;2023-03-01T06:50:35;103761.50;;;9.66;100.00
64340;BME280;63709;53.258;-8.814;2023-03-01T06:53:01;103767.69;;;9.68;100.00
64340;BME280;63709;53.258;-8.814;2023-03-01T06:55:26;103755.41;;;9.61;100.00
64340;BME280;63709;53.258;-8.814;2023-03-01T06:57:55;103747.44;;;9.59;100.00
64340;BME280;63709;53.258;-8.814;2023-03-01T07:00:21;103760.81;;;9.58;100.00
64340;BME280;63709;53.258;-8.814;2023-03-01T07:02:46;103763.38;;;9.62;100.00
64340;BME280;63709;53.258;-8.814;2023-03-01T07:05:12;103758.78;;;9.69;100.00
64340;BME280;63709;53.258;-8.814;2023-03-01T07:07:37;103759.97;;;9.56;100.00
64340;BME280;63709;53.258;-8.814;2023-03-01T07:10:02;103761.38;;;9.72;100.00
64340;BME280;63709;53.258;-8.814;2023-03-01T07:12:28;103757.72;;;9.75;100.00
64340;BME280;63709;53.258;-8.814;2023-03-01T07:14:53;103764.94;;;9.71;100.00
64340;BME280;63709;53.258;-8.814;2023-03-01T07:17:18;103767.66;;;9.69;100.00
64340;BME280;63709;53.258;-8.814;2023-03-01T07:19:43;103767.81;;;9.62;100.00
64340;BME280;63709;53.258;-8.814;2023-03-01T07:22:09;103769.47;;;9.67;100.00
64340;BME280;63709;53.258;-8.814;2023-03-01T07:24:35;103771.44;;;9.59;100.00
64340;BME280;63709;53.258;-8.814;2023-03-01T07:27:00;103769.56;;;9.64;100.00
64340;BME280;63709;53.258;-8.814;2023-03-01T07:29:27;103770.38;;;9.68;100.00
64340;BME280;63709;53.258;-8.814;2023-03-01T07:31:53;103771.19;;;9.70;100.00
64340;BME280;63709;53.258;-8.814;2023-03-01T07:34:19;103769.69;;;9.58;100.00
64340;BME280;63709;53.258;-8.814;2023-03-01T07:36:45;103772.97;;;9.69;100.00
64340;BME280;63709;53.258;-8.814;2023-03-01T07:39:11;103773.78;;;9.73;100.00
64340;BME280;63709;53.258;-8.814;2023-03-01T07:41:36;103780.13;;;9.67;100.00
64340;BME280;63709;53.258;-8.814;2023-03-01T07:47:07;103777.31;;;9.74;100.00
64340;BME280;63709;53.258;-8.814;2023-03-01T07:49:32;103769.31;;;9.74;100.00
64340;BME280;63709;53.258;-8.814;2023-03-01T07:51:58;103772.03;;;9.72;100.00
64340;BME280;63709;53.258;-8.814;2023-03-01T07:54:23;103768.53;;;9.70;100.00
64340;BME280;63709;53.258;-8.814;2023-03-01T07:56:48;103763.53;;;9.55;100.00
64340;BME280;63709;53.258;-8.814;2023-03-01T07:59:14;103770.56;;;9.59;100.00
64340;BME280;63709;53.258;-8.814;2023-03-01T08:01:39;103766.03;;;9.62;100.00
64340;BME280;63709;53.258;-8.814;2023-03-01T08:04:04;103768.22;;;9.82;100.00
64340;BME280;63709;53.258;-8.814;2023-03-01T08:06:33;103769.63;;;9.61;100.00
64340;BME280;63709;53.258;-8.814;2023-03-01T08:08:58;103757.72;;;9.76;100.00
64340;BME280;63709;53.258;-8.814;2023-03-01T08:11:24;103767.88;;;9.60;100.00
64340;BME280;63709;53.258;-8.814;2023-03-01T08:13:49;103758.22;;;9.55;100.00
64340;BME280;63709;53.258;-8.814;2023-03-01T08:16:16;103759.19;;;9.51;100.00
64340;BME280;63709;53.258;-8.814;2023-03-01T08:18:42;103766.91;;;9.63;100.00
64340;BME280;63709;53.258;-8.814;2023-03-01T08:21:12;103762.50;;;9.62;100.00
64340;BME280;63709;53.258;-8.814;2023-03-01T08:23:38;103763.63;;;9.52;100.00
64340;BME280;63709;53.258;-8.814;2023-03-01T08:26:10;103768.84;;;9.56;100.00
64340;BME280;63709;53.258;-8.814;2023-03-01T08:28:37;103766.78;;;9.69;100.00
64340;BME280;63709;53.258;-8.814;2023-03-01T08:34:02;103766.47;;;9.44;100.00
64340;BME280;63709;53.258;-8.814;2023-03-01T08:36:44;103762.69;;;9.54;100.00
64340;BME280;63709;53.258;-8.814;2023-03-01T08:39:11;103763.69;;;9.49;100.00
64340;BME280;63709;53.258;-8.814;2023-03-01T08:41:37;103770.50;;;9.62;100.00
64340;BME280;63709;53.258;-8.814;2023-03-01T08:44:03;103772.25;;;9.63;100.00
64340;BME280;63709;53.258;-8.814;2023-03-01T08:46:30;103777.75;;;9.55;100.00
64340;BME280;63709;53.258;-8.814;2023-03-01T08:48:56;103779.41;;;9.61;100.00
64340;BME280;63709;53.258;-8.814;2023-03-01T08:51:22;103777.44;;;9.69;100.00
64340;BME280;63709;53.258;-8.814;2023-03-01T08:53:48;103790.22;;;9.55;100.00
64340;BME280;63709;53.258;-8.814;2023-03-01T08:56:15;103775.16;;;9.52;100.00
64340;BME280;63709;53.258;-8.814;2023-03-01T08:58:43;103777.63;;;9.60;100.00
64340;BME280;63709;53.258;-8.814;2023-03-01T09:01:10;103776.03;;;9.53;100.00
64340;BME280;63709;53.258;-8.814;2023-03-01T09:03:36;103772.47;;;9.54;100.00
64340;BME280;63709;53.258;-8.814;2023-03-01T09:06:02;103767.69;;;9.29;100.00
64340;BME280;63709;53.258;-8.814;2023-03-01T09:08:29;103765.13;;;9.63;100.00
64340;BME280;63709;53.258;-8.814;2023-03-01T09:10:55;103768.03;;;9.53;100.00
64340;BME280;63709;53.258;-8.814;2023-03-01T09:13:20;103766.91;;;9.63;100.00
64340;BME280;63709;53.258;-8.814;2023-03-01T09:15:46;103763.44;;;9.59;100.00
64340;BME280;63709;53.258;-8.814;2023-03-01T09:18:11;103769.56;;;9.63;100.00
64340;BME280;63709;53.258;-8.814;2023-03-01T09:20:36;103767.78;;;9.63;100.00
64340;BME280;63709;53.258;-8.814;2023-03-01T09:23:01;103763.53;;;9.55;100.00
64340;BME280;63709;53.258;-8.814;2023-03-01T09:25:27;103764.22;;;9.64;100.00
64340;BME280;63709;53.258;-8.814;2023-03-01T09:27:53;103760.00;;;9.54;100.00
64340;BME280;63709;53.258;-8.814;2023-03-01T09:30:19;103760.81;;;9.58;100.00
64340;BME280;63709;53.258;-8.814;2023-03-01T09:32:45;103760.59;;;9.67;100.00
64340;BME280;63709;53.258;-8.814;2023-03-01T09:35:13;103754.06;;;9.80;100.00
64340;BME280;63709;53.258;-8.814;2023-03-01T09:37:39;103758.09;;;9.61;100.00
64340;BME280;63709;53.258;-8.814;2023-03-01T09:40:12;103749.66;;;9.78;100.00
64340;BME280;63709;53.258;-8.814;2023-03-01T09:42:45;103740.72;;;9.80;100.00
64340;BME280;63709;53.258;-8.814;2023-03-01T09:45:11;103746.88;;;9.82;100.00
64340;BME280;63709;53.258;-8.814;2023-03-01T09:47:43;103744.75;;;9.97;100.00
64340;BME280;63709;53.258;-8.814;2023-03-01T09:55:20;103746.38;;;10.02;100.00
64340;BME280;63709;53.258;-8.814;2023-03-01T09:57:53;103743.38;;;10.16;100.00
64340;BME280;63709;53.258;-8.814;2023-03-01T10:00:27;103747.78;;;10.17;100.00
64340;BME280;63709;53.258;-8.814;2023-03-01T10:03:00;103740.53;;;10.22;100.00
64340;BME280;63709;53.258;-8.814;2023-03-01T10:08:27;103744.06;;;10.23;100.00
64340;BME280;63709;53.258;-8.814;2023-03-01T10:10:46;103747.00;;;10.13;100.00
64340;BME280;63709;53.258;-8.814;2023-03-01T10:13:17;103747.94;;;10.11;100.00
64340;BME280;63709;53.258;-8.814;2023-03-01T10:15:48;103742.22;;;10.26;100.00
64340;BME280;63709;53.258;-8.814;2023-03-01T10:18:28;103748.00;;;10.08;100.00
64340;BME280;63709;53.258;-8.814;2023-03-01T10:23:43;103741.41;;;10.23;100.00
64340;BME280;63709;53.258;-8.814;2023-03-01T10:26:17;103742.16;;;10.29;100.00
64340;BME280;63709;53.258;-8.814;2023-03-01T10:31:14;103739.78;;;10.15;100.00
64340;BME280;63709;53.258;-8.814;2023-03-01T10:33:43;103739.06;;;10.10;100.00
64340;BME280;63709;53.258;-8.814;2023-03-01T10:36:09;103743.06;;;9.92;100.00
64340;BME280;63709;53.258;-8.814;2023-03-01T10:38:51;103741.06;;;10.01;100.00
64340;BME280;63709;53.258;-8.814;2023-03-01T10:41:19;103747.56;;;10.26;100.00
64340;BME280;63709;53.258;-8.814;2023-03-01T10:49:05;103737.53;;;10.36;100.00
64340;BME280;63709;53.258;-8.814;2023-03-01T10:51:39;103740.66;;;10.52;100.00
64340;BME280;63709;53.258;-8.814;2023-03-01T10:56:56;103748.00;;;10.44;100.00
64340;BME280;63709;53.258;-8.814;2023-03-01T10:59:24;103741.00;;;10.38;100.00
64340;BME280;63709;53.258;-8.814;2023-03-01T11:02:37;103732.56;;;10.55;100.00
64340;BME280;63709;53.258;-8.814;2023-03-01T11:04:38;103733.06;;;10.68;100.00
64340;BME280;63709;53.258;-8.814;2023-03-01T11:07:03;103728.78;;;10.62;100.00
64340;BME280;63709;53.258;-8.814;2023-03-01T11:09:32;103725.81;;;10.73;100.00
64340;BME280;63709;53.258;-8.814;2023-03-01T11:12:03;103726.38;;;10.84;100.00
64340;BME280;63709;53.258;-8.814;2023-03-01T11:14:33;103724.00;;;10.73;100.00
64340;BME280;63709;53.258;-8.814;2023-03-01T11:17:14;103723.94;;;10.76;100.00
64340;BME280;63709;53.258;-8.814;2023-03-01T11:19:40;103714.38;;;10.97;100.00
64340;BME280;63709;53.258;-8.814;2023-03-01T11:22:26;103713.50;;;10.97;100.00
64340;BME280;63709;53.258;-8.814;2023-03-01T11:24:51;103715.91;;;10.76;100.00
64340;BME280;63709;53.258;-8.814;2023-03-01T11:27:21;103711.59;;;11.02;100.00
64340;BME280;63709;53.258;-8.814;2023-03-01T11:29:50;103712.66;;;10.96;100.00
64340;BME280;63709;53.258;-8.814;2023-03-01T11:32:17;103708.53;;;10.84;100.00
64340;BME280;63709;53.258;-8.814;2023-03-01T11:37:15;103698.88;;;10.80;100.00
64340;BME280;63709;53.258;-8.814;2023-03-01T11:45:11;103701.22;;;10.61;100.00
64340;BME280;63709;53.258;-8.814;2023-03-01T11:52:41;103689.72;;;11.17;100.00
64340;BME280;63709;53.258;-8.814;2023-03-01T12:00:44;103680.66;;;10.93;100.00
64340;BME280;63709;53.258;-8.814;2023-03-01T12:10:44;103674.56;;;11.18;100.00
64340;BME280;63709;53.258;-8.814;2023-03-01T12:21:44;103661.28;;;11.14;100.00
64340;BME280;63709;53.258;-8.814;2023-03-01T12:37:00;103651.56;;;10.84;100.00
64340;BME280;63709;53.258;-8.814;2023-03-01T12:39:39;103650.25;;;10.97;100.00
64340;BME280;63709;53.258;-8.814;2023-03-01T12:44:39;103640.91;;;10.82;100.00
64340;BME280;63709;53.258;-8.814;2023-03-01T12:49:51;103621.28;;;11.38;100.00
64340;BME280;63709;53.258;-8.814;2023-03-01T12:52:23;103612.97;;;11.21;100.00
64340;BME280;63709;53.258;-8.814;2023-03-01T12:54:51;103610.41;;;11.18;100.00
64340;BME280;63709;53.258;-8.814;2023-03-01T12:57:34;103607.66;;;11.19;100.00
64340;BME280;63709;53.258;-8.814;2023-03-01T13:02:35;103602.19;;;11.24;100.00
64340;BME280;63709;53.258;-8.814;2023-03-01T13:07:58;103587.19;;;11.45;100.00
64340;BME280;63709;53.258;-8.814;2023-03-01T13:15:38;103576.94;;;11.82;100.00
64340;BME280;63709;53.258;-8.814;2023-03-01T13:26:02;103559.56;;;12.19;100.00
64340;BME280;63709;53.258;-8.814;2023-03-01T13:30:59;103546.47;;;11.88;100.00
64340;BME280;63709;53.258;-8.814;2023-03-01T13:35:53;103553.72;;;11.84;100.00
64340;BME280;63709;53.258;-8.814;2023-03-01T13:41:02;103553.75;;;11.58;100.00
64340;BME280;63709;53.258;-8.814;2023-03-01T13:43:32;103547.41;;;11.60;100.00
64340;BME280;63709;53.258;-8.814;2023-03-01T13:45:59;103546.78;;;11.54;100.00
64340;BME280;63709;53.258;-8.814;2023-03-01T13:48:25;103542.59;;;11.45;100.00
64340;BME280;63709;53.258;-8.814;2023-03-01T13:50:53;103531.97;;;11.44;100.00
64340;BME280;63709;53.258;-8.814;2023-03-01T13:53:22;103527.94;;;11.57;100.00
64340;BME280;63709;53.258;-8.814;2023-03-01T13:55:48;103531.09;;;11.68;100.00
64340;BME280;63709;53.258;-8.814;2023-03-01T14:00:54;103525.28;;;11.57;100.00
64340;BME280;63709;53.258;-8.814;2023-03-01T14:03:20;103516.63;;;11.49;100.00
64340;BME280;63709;53.258;-8.814;2023-03-01T14:08:33;103497.47;;;11.61;100.00
64340;BME280;63709;53.258;-8.814;2023-03-01T14:13:44;103491.22;;;11.85;100.00
64340;BME280;63709;53.258;-8.814;2023-03-01T14:21:17;103484.03;;;11.88;100.00
64340;BME280;63709;53.258;-8.814;2023-03-01T14:23:43;103473.41;;;12.08;100.00
64340;BME280;63709;53.258;-8.814;2023-03-01T14:26:09;103468.72;;;11.91;100.00
64340;BME280;63709;53.258;-8.814;2023-03-01T14:28:37;103470.25;;;11.98;100.00
64340;BME280;63709;53.258;-8.814;2023-03-01T14:31:35;103458.59;;;11.74;100.00
64340;BME280;63709;53.258;-8.814;2023-03-01T14:33:54;103457.63;;;11.53;100.00
64340;BME280;63709;53.258;-8.814;2023-03-01T14:36:25;103461.88;;;11.82;100.00
64340;BME280;63709;53.258;-8.814;2023-03-01T14:38:51;103447.97;;;11.73;100.00
64340;BME280;63709;53.258;-8.814;2023-03-01T14:43:52;103440.72;;;11.76;100.00
64340;BME280;63709;53.258;-8.814;2023-03-01T14:46:22;103442.34;;;11.57;100.00